createdAt,value
2023-03-06T00:04:41.361Z,4.08
2023-03-06T00:09:43.065Z,3.83
2023-03-06T00:14:44.907Z,1.52
2023-03-06T00:19:46.790Z,0.03
2023-03-06T00:24:48.602Z,-0.94
2023-03-06T00:29:57.814Z,-1.61
2023-03-06T00:34:59.583Z,-1.37
2023-03-06T00:40:01.566Z,1.22
2023-03-06T00:45:04.900Z,2.91
2023-03-06T00:50:08.094Z,3.80
2023-03-06T00:55:10.695Z,2.63
2023-03-06T01:00:14.320Z,0.45
2023-03-06T01:05:16.273Z,-0.86
2023-03-06T01:10:18.283Z,-1.66
2023-03-06T01:15:21.357Z,-0.91
2023-03-06T01:20:23.349Z,1.49
2023-03-06T01:25:26.034Z,2.55
2023-03-06T01:30:27.908Z,1.09
2023-03-06T01:35:29.738Z,-0.58
2023-03-06T01:40:34.019Z,-1.55
2023-03-06T01:45:35.724Z,-0.99
2023-03-06T01:50:37.880Z,1.69
2023-03-06T01:55:40.067Z,3.07
2023-03-06T02:00:41.852Z,3.81
2023-03-06T02:05:44.297Z,3.27
2023-03-06T02:10:58.912Z,0.78
2023-03-06T02:16:01.923Z,-0.71
2023-03-06T02:21:09.234Z,-1.64
2023-03-06T02:26:12.737Z,-2.24
2023-03-06T02:31:28.993Z,-0.65
2023-03-06T02:36:34.744Z,1.74
2023-03-06T02:41:36.491Z,2.90
2023-03-06T02:46:38.176Z,2.14
2023-03-06T02:51:39.936Z,-0.02
2023-03-06T02:56:41.717Z,-1.33
2023-03-06T03:01:43.545Z,-2.05
2023-03-06T03:06:45.290Z,-0.33
2023-03-06T03:11:46.931Z,1.55
2023-03-06T03:16:48.606Z,1.66
2023-03-06T03:21:50.276Z,-0.31
2023-03-06T03:26:52.361Z,-1.59
2023-03-06T03:31:54.135Z,-2.30
2023-03-06T03:36:55.913Z,-0.58
2023-03-06T03:41:57.588Z,1.64
2023-03-06T03:46:59.279Z,2.88
2023-03-06T03:52:00.936Z,3.55
2023-03-06T03:57:03.214Z,2.42
2023-03-06T04:02:05.166Z,0.05
2023-03-06T04:07:06.869Z,-1.40
2023-03-06T04:12:09.057Z,-2.24
2023-03-06T04:17:10.831Z,-1.04
2023-03-06T04:22:12.704Z,1.24
2023-03-06T04:27:14.399Z,2.45
2023-03-06T04:32:16.178Z,2.18
2023-03-06T04:37:24.300Z,-0.07
2023-03-06T04:42:26.057Z,-1.57
2023-03-06T04:47:27.827Z,-0.35
2023-03-06T04:52:29.733Z,1.43
2023-03-06T04:57:31.449Z,0.99
2023-03-06T05:02:33.549Z,-0.99
2023-03-06T05:07:35.552Z,-2.00
2023-03-06T05:12:38.952Z,-0.19
2023-03-06T05:17:41.248Z,1.49
2023-03-06T05:22:44.040Z,2.66
2023-03-06T05:27:46.343Z,2.42
2023-03-06T05:32:49.203Z,0.04
2023-03-06T05:37:51.319Z,-1.54
2023-03-06T05:42:53.318Z,-2.46
2023-03-06T05:47:55.275Z,-1.26
2023-03-06T05:52:57.057Z,1.13
2023-03-06T05:57:58.880Z,2.34
2023-03-06T06:03:01.940Z,1.72
2023-03-06T06:08:03.812Z,-0.38
2023-03-06T06:13:06.103Z,-1.64
2023-03-06T06:18:07.803Z,-1.37
2023-03-06T06:23:12.647Z,0.94
2023-03-06T06:28:14.493Z,2.45
2023-03-06T06:33:16.275Z,2.47
2023-03-06T06:38:19.472Z,0.31
2023-03-06T06:43:21.219Z,-1.00
2023-03-06T06:48:23.080Z,-1.42
2023-03-06T06:53:27.404Z,0.72
2023-03-06T06:58:29.754Z,2.35
2023-03-06T07:03:31.654Z,1.08
2023-03-06T07:08:34.641Z,-0.29
2023-03-06T07:13:36.408Z,0.87
2023-03-06T07:18:38.283Z,1.82
2023-03-06T07:23:40.772Z,0.47
2023-03-06T07:28:52.035Z,-0.33
2023-03-06T07:33:55.281Z,1.50
2023-03-06T07:38:56.966Z,3.33
2023-03-06T07:43:59.550Z,1.98
2023-03-06T07:49:01.350Z,0.55
2023-03-06T07:54:03.291Z,1.35
2023-03-06T07:59:04.985Z,2.66
2023-03-06T08:04:07.096Z,1.36
2023-03-06T08:09:08.940Z,0.52
2023-03-06T08:14:10.846Z,0.29
2023-03-06T08:19:12.602Z,2.35
2023-03-06T08:24:16.332Z,2.51
2023-03-06T08:29:18.094Z,1.34
2023-03-06T08:34:26.509Z,0.81
2023-03-06T08:39:28.392Z,0.85
2023-03-06T08:44:30.148Z,3.37
2023-03-06T08:49:32.557Z,4.49
2023-03-06T08:54:36.195Z,3.13
2023-03-06T08:59:38.159Z,2.18
2023-03-06T09:04:40.057Z,1.69
2023-03-06T09:09:42.217Z,1.49
2023-03-06T09:14:44.017Z,1.38
2023-03-06T09:19:45.769Z,1.87
2023-03-06T09:24:47.548Z,4.55
2023-03-06T09:29:49.526Z,4.72
2023-03-06T09:34:51.303Z,3.57
2023-03-06T09:39:53.184Z,3.06
2023-03-06T09:44:58.731Z,2.74
2023-03-06T09:50:34.157Z,2.58
2023-03-06T09:55:39.739Z,2.62
2023-03-06T10:01:03.152Z,2.66
2023-03-06T10:06:18.024Z,2.74
2023-03-06T10:11:32.531Z,2.87
2023-03-06T10:16:34.382Z,3.03
2023-03-06T10:22:00.523Z,3.22
2023-03-06T10:27:42.898Z,3.35
2023-03-06T10:32:59.213Z,3.49
2023-03-06T10:38:22.488Z,3.71
2023-03-06T10:43:24.431Z,3.96
2023-03-06T10:48:32.240Z,4.16
2023-03-06T10:53:34.329Z,4.30
2023-03-06T10:58:35.999Z,4.52
2023-03-06T11:03:38.019Z,4.72
2023-03-06T11:08:43.912Z,4.78
2023-03-06T11:13:58.204Z,4.87
2023-03-06T11:19:04.998Z,4.88
2023-03-06T11:24:18.270Z,4.96
2023-03-06T11:29:48.965Z,5.07
2023-03-06T11:35:28.514Z,5.23
2023-03-06T11:40:42.787Z,5.37
2023-03-06T11:45:58.845Z,5.44
2023-03-06T11:51:16.917Z,5.43
2023-03-06T11:56:18.576Z,5.37
2023-03-06T12:01:54.695Z,5.19
2023-03-06T12:07:24.408Z,5.15
2023-03-06T12:12:41.537Z,5.10
2023-03-06T12:18:21.734Z,4.96
2023-03-06T12:23:45.487Z,4.84
2023-03-06T12:29:10.506Z,4.94
2023-03-06T12:34:36.764Z,5.02
2023-03-06T12:40:09.580Z,4.99
2023-03-06T12:45:23.931Z,4.93
2023-03-06T12:50:27.254Z,4.76
2023-03-06T12:55:45.716Z,4.61
2023-03-06T13:01:11.187Z,4.74
2023-03-06T13:06:49.870Z,4.92
2023-03-06T13:12:04.767Z,4.95
2023-03-06T13:17:37.575Z,4.91
2023-03-06T13:22:44.873Z,4.77
2023-03-06T13:27:53.212Z,4.82
2023-03-06T13:32:55.999Z,4.86
2023-03-06T13:37:59.929Z,4.80
2023-03-06T13:43:07.952Z,4.72
2023-03-06T13:48:46.004Z,4.77
2023-03-06T13:54:31.399Z,4.87
2023-03-06T14:00:08.209Z,4.93
2023-03-06T14:05:16.527Z,4.89
2023-03-06T14:10:25.745Z,4.91
2023-03-06T14:15:45.995Z,4.80
2023-03-06T14:20:56.741Z,4.62
2023-03-06T14:26:18.212Z,4.54
2023-03-06T14:31:27.690Z,4.55
2023-03-06T14:36:29.808Z,4.55
2023-03-06T14:41:36.145Z,4.45
2023-03-06T14:46:38.004Z,4.43
2023-03-06T14:51:47.990Z,4.41
2023-03-06T14:57:13.065Z,4.34
2023-03-06T15:02:22.270Z,4.29
2023-03-06T15:07:31.969Z,4.35
2023-03-06T15:12:36.656Z,4.30
2023-03-06T15:17:48.745Z,4.20
2023-03-06T15:22:50.606Z,4.03
2023-03-06T15:27:59.912Z,3.90
2023-03-06T15:33:19.376Z,3.81
2023-03-06T15:38:42.419Z,3.66
2023-03-06T15:43:44.299Z,3.51
2023-03-06T15:49:03.430Z,3.40
2023-03-06T15:54:12.368Z,3.22
2023-03-06T15:59:32.562Z,3.09
2023-03-06T16:04:34.515Z,2.95
2023-03-06T16:09:36.697Z,2.90
2023-03-06T16:14:39.301Z,2.83
2023-03-06T16:19:41.595Z,2.74
2023-03-06T16:24:43.489Z,2.62
2023-03-06T16:29:45.764Z,2.52
2023-03-06T16:34:47.618Z,2.45
2023-03-06T16:39:49.489Z,2.40
2023-03-06T16:44:51.340Z,2.25
2023-03-06T16:49:57.379Z,2.04
2023-03-06T16:54:59.223Z,1.86
2023-03-06T17:00:01.406Z,1.71
2023-03-06T17:05:05.310Z,1.59
2023-03-06T17:10:12.568Z,1.47
2023-03-06T17:15:14.310Z,1.31
2023-03-06T17:20:16.098Z,1.19
2023-03-06T17:25:17.961Z,1.13
2023-03-06T17:30:20.042Z,1.13
2023-03-06T17:35:21.862Z,1.13
2023-03-06T17:40:25.125Z,1.09
2023-03-06T17:45:29.075Z,1.05
2023-03-06T17:50:31.036Z,1.06
2023-03-06T17:55:32.908Z,1.05
2023-03-06T18:00:35.612Z,0.97
2023-03-06T18:05:38.406Z,0.91
2023-03-06T18:10:42.742Z,0.85
2023-03-06T18:15:44.549Z,0.78
2023-03-06T18:20:47.273Z,0.73
2023-03-06T18:25:50.118Z,0.64
2023-03-06T18:30:51.810Z,0.58
2023-03-06T18:35:53.688Z,0.51
2023-03-06T18:40:55.648Z,1.68
2023-03-06T18:45:57.808Z,5.36
2023-03-06T18:51:06.308Z,7.41
2023-03-06T18:56:15.721Z,7.34
2023-03-06T19:01:18.241Z,5.05
2023-03-06T19:06:20.301Z,3.67
2023-03-06T19:11:22.073Z,2.80
2023-03-06T19:16:30.389Z,2.13
2023-03-06T19:21:32.391Z,1.56
2023-03-06T19:26:34.058Z,1.11
2023-03-06T19:31:35.970Z,0.73
2023-03-06T19:36:40.165Z,0.42
2023-03-06T19:41:41.889Z,0.17
2023-03-06T19:46:43.699Z,-0.04
2023-03-06T19:51:45.727Z,-0.21
2023-03-06T19:56:47.385Z,-0.37
2023-03-06T20:01:49.188Z,-0.52
2023-03-06T20:06:51.222Z,-0.68
2023-03-06T20:11:53.231Z,-0.87
2023-03-06T20:16:54.977Z,-0.02
2023-03-06T20:21:56.672Z,2.93
2023-03-06T20:26:59.058Z,4.61
2023-03-06T20:32:01.117Z,5.65
2023-03-06T20:37:03.099Z,5.45
2023-03-06T20:42:05.589Z,3.49
2023-03-06T20:47:08.592Z,2.24
2023-03-06T20:52:10.487Z,1.38
2023-03-06T20:57:12.570Z,0.71
2023-03-06T21:02:14.867Z,0.19
2023-03-06T21:07:17.072Z,-0.24
2023-03-06T21:12:18.903Z,-0.59
2023-03-06T21:17:20.790Z,-0.86
2023-03-06T21:22:22.658Z,-1.06
2023-03-06T21:27:24.437Z,-1.23
2023-03-06T21:32:26.293Z,-1.37
2023-03-06T21:37:28.320Z,-0.70
2023-03-06T21:42:29.960Z,2.00
2023-03-06T21:47:37.271Z,3.84
2023-03-06T21:52:39.661Z,4.98
2023-03-06T21:57:42.153Z,4.85
2023-03-06T22:02:44.147Z,2.82
2023-03-06T22:07:46.014Z,1.47
2023-03-06T22:12:47.705Z,0.59
2023-03-06T22:17:49.378Z,-0.07
2023-03-06T22:22:51.232Z,-0.59
2023-03-06T22:27:52.897Z,-1.01
2023-03-06T22:32:54.713Z,-1.33
2023-03-06T22:37:58.187Z,-1.58
2023-03-06T22:42:59.869Z,-1.00
2023-03-06T22:48:10.637Z,1.66
2023-03-06T22:53:13.037Z,3.43
2023-03-06T22:58:14.813Z,4.47
2023-03-06T23:03:16.586Z,5.15
2023-03-06T23:08:18.365Z,3.79
2023-03-06T23:13:20.342Z,1.83
2023-03-06T23:18:22.224Z,0.62
2023-03-06T23:23:25.671Z,-0.22
2023-03-06T23:28:28.328Z,-0.88
2023-03-06T23:33:30.118Z,-1.40
2023-03-06T23:38:32.600Z,-1.81
2023-03-06T23:43:34.887Z,-2.11
2023-03-06T23:48:40.000Z,-2.35
2023-03-06T23:53:43.864Z,-1.46
2023-03-06T23:58:45.752Z,1.45
